KCAE

Columbia Metropolitan Airport

Columbia, South Carolina, USA
METAR KCAE 162156Z 27008KT 10SM FEW150 14/08 A3000 RMK AO2 SLP158 T01440083
Observed Flight Rules
Dec-16 @ 21:56 UTC (31 minutes ago) Visual Flight Rules
Wind Visibility Clouds
270° at 8 knots 10 miles
  • Few at 15,000' AGL
Temperatures Readings
Current 14°C / 57°F
Dewpoint 8°C / 46°F
Humidity 67%
Altimeter 30" Hg
Pressure 1015.8 hPa
Elevation 70
METAR KCAE 162156Z 27008KT 10SM FEW150 14/08 A3000 RMK AO2 SLP158 T01440083
Observed Flight Rules
Dec-16 @ 21:56 UTC
(31 minutes ago)
VFR
Wind Visibility
270° at 8 knots 10 miles
Clouds
  • Few at 15,000' AGL
Temperature Dewpoint
14°C / 57°F 8°C / 46°F
Humidity Altimeter Pressure
67% 30" Hg 1015.8 hPa